createdAt,value
2022-09-21T00:01:37.530Z,44.81
2022-09-21T00:04:06.080Z,45.16
2022-09-21T00:06:35.142Z,44.85
2022-09-21T00:09:08.187Z,44.55
2022-09-21T00:11:37.151Z,44.67
2022-09-21T00:14:07.578Z,44.67
2022-09-21T00:16:36.556Z,44.53
2022-09-21T00:19:05.026Z,44.60
2022-09-21T00:21:34.216Z,45.96
2022-09-21T00:24:02.926Z,46.10
2022-09-21T00:26:32.207Z,45.50
2022-09-21T00:29:01.854Z,45.61
2022-09-21T00:31:31.262Z,45.82
2022-09-21T00:34:00.966Z,45.36
2022-09-21T00:36:29.531Z,45.69
2022-09-21T00:39:00.882Z,45.57
2022-09-21T00:41:30.781Z,45.69
2022-09-21T00:44:17.989Z,46.12
2022-09-21T00:46:49.550Z,49.37
2022-09-21T00:49:18.408Z,50.00
2022-09-21T00:51:47.993Z,50.65
2022-09-21T00:54:20.701Z,50.05
2022-09-21T00:56:49.190Z,48.35
2022-09-21T00:59:21.541Z,48.41
2022-09-21T01:01:50.910Z,47.88
2022-09-21T01:04:19.549Z,48.88
2022-09-21T01:06:49.033Z,48.40
2022-09-21T01:09:18.379Z,50.00
2022-09-21T01:11:56.619Z,48.15
2022-09-21T01:14:34.127Z,47.68
2022-09-21T01:17:08.543Z,47.57
2022-09-21T01:19:49.335Z,47.25
2022-09-21T01:22:19.159Z,46.79
2022-09-21T01:24:50.749Z,46.86
2022-09-21T01:27:19.182Z,46.84
2022-09-21T01:30:02.350Z,46.70
2022-09-21T01:32:47.874Z,46.46
2022-09-21T01:35:22.851Z,47.02
2022-09-21T01:37:58.406Z,46.99
2022-09-21T01:40:44.002Z,46.73
2022-09-21T01:43:19.127Z,46.19
2022-09-21T01:45:50.434Z,46.25
2022-09-21T01:48:21.918Z,46.47
2022-09-21T01:50:52.191Z,46.62
2022-09-21T01:53:35.120Z,46.42
2022-09-21T01:56:24.078Z,46.19
2022-09-21T01:59:06.972Z,46.04
2022-09-21T02:01:38.610Z,45.95
2022-09-21T02:04:11.446Z,45.95
2022-09-21T02:06:45.312Z,45.94
2022-09-21T02:09:14.181Z,45.79
2022-09-21T02:11:44.847Z,46.17
2022-09-21T02:14:18.171Z,46.44
2022-09-21T02:16:49.199Z,46.85
2022-09-21T02:19:36.598Z,47.22
2022-09-21T02:22:12.637Z,46.85
2022-09-21T02:24:54.502Z,46.24
2022-09-21T02:27:41.639Z,46.10
2022-09-21T02:30:14.989Z,46.01
2022-09-21T02:32:55.479Z,46.85
2022-09-21T02:35:42.771Z,48.46
2022-09-21T02:38:17.514Z,48.96
2022-09-21T02:40:45.780Z,48.98
2022-09-21T02:43:35.015Z,50.54
2022-09-21T02:46:13.981Z,50.35
2022-09-21T02:48:48.119Z,48.17
2022-09-21T02:51:22.770Z,47.32
2022-09-21T02:53:52.802Z,47.37
2022-09-21T02:56:21.509Z,47.63
2022-09-21T02:58:54.236Z,49.91
2022-09-21T03:01:23.015Z,50.63
2022-09-21T03:03:51.291Z,49.42
2022-09-21T03:06:19.612Z,48.50
2022-09-21T03:08:47.903Z,48.40
2022-09-21T03:11:17.108Z,48.14
2022-09-21T03:13:45.540Z,49.26
2022-09-21T03:16:14.062Z,48.80
2022-09-21T03:18:44.280Z,48.27
2022-09-21T03:21:12.673Z,47.46
2022-09-21T03:23:41.073Z,47.78
2022-09-21T03:26:09.400Z,48.15
2022-09-21T03:28:37.788Z,48.17
2022-09-21T03:31:06.749Z,48.01
2022-09-21T03:33:35.063Z,47.23
2022-09-21T03:36:03.376Z,47.54
2022-09-21T03:38:31.802Z,50.46
2022-09-21T03:41:00.437Z,51.51
2022-09-21T03:43:29.251Z,51.17
2022-09-21T03:45:57.901Z,50.42
2022-09-21T03:48:26.369Z,49.33
2022-09-21T03:50:54.643Z,48.90
2022-09-21T03:53:22.870Z,50.29
2022-09-21T03:55:51.102Z,49.24
2022-09-21T03:58:19.497Z,48.72
2022-09-21T04:00:47.770Z,47.96
2022-09-21T04:03:16.198Z,47.86
2022-09-21T04:05:44.455Z,47.71
2022-09-21T04:08:12.871Z,47.73
2022-09-21T04:10:42.705Z,47.77
2022-09-21T04:13:11.344Z,47.51
2022-09-21T04:15:39.702Z,47.98
2022-09-21T04:18:09.546Z,47.97
2022-09-21T04:20:37.850Z,47.52
2022-09-21T04:23:07.723Z,47.38
2022-09-21T04:25:36.152Z,48.12
2022-09-21T04:28:04.518Z,49.39
2022-09-21T04:30:37.525Z,49.12
2022-09-21T04:33:06.453Z,48.45
2022-09-21T04:35:34.889Z,47.86
2022-09-21T04:38:03.361Z,47.66
2022-09-21T04:40:31.776Z,47.62
2022-09-21T04:43:00.323Z,47.57
2022-09-21T04:45:28.658Z,47.56
2022-09-21T04:47:56.944Z,49.21
2022-09-21T04:50:25.540Z,48.88
2022-09-21T04:52:53.967Z,48.18
2022-09-21T04:55:23.167Z,48.60
2022-09-21T04:57:51.603Z,48.28
2022-09-21T05:00:19.994Z,48.20
2022-09-21T05:02:48.560Z,47.96
2022-09-21T05:05:16.932Z,47.83
2022-09-21T05:07:45.532Z,47.88
2022-09-21T05:10:13.914Z,47.79
2022-09-21T05:12:43.777Z,47.78
2022-09-21T05:15:12.160Z,48.04
2022-09-21T05:17:40.748Z,49.00
2022-09-21T05:20:10.029Z,49.09
2022-09-21T05:22:38.376Z,48.22
2022-09-21T05:25:07.158Z,48.30
2022-09-21T05:27:35.612Z,48.63
2022-09-21T05:30:04.885Z,48.41
2022-09-21T05:32:43.678Z,48.38
2022-09-21T05:35:28.693Z,48.02
2022-09-21T05:38:20.356Z,47.79
2022-09-21T05:40:50.104Z,47.71
2022-09-21T05:43:18.576Z,47.97
2022-09-21T05:45:52.131Z,47.86
2022-09-21T05:48:26.961Z,47.92
2022-09-21T05:51:14.780Z,48.04
2022-09-21T05:53:43.056Z,47.68
2022-09-21T05:56:14.430Z,47.57
2022-09-21T05:58:54.054Z,47.26
2022-09-21T06:01:34.438Z,47.39
2022-09-21T06:04:03.398Z,47.69
2022-09-21T06:06:31.709Z,47.40
2022-09-21T06:09:00.191Z,47.93
2022-09-21T06:11:28.534Z,48.82
2022-09-21T06:13:57.046Z,49.01
2022-09-21T06:16:25.437Z,48.93
2022-09-21T06:18:53.812Z,48.54
2022-09-21T06:21:22.202Z,48.09
2022-09-21T06:23:50.802Z,48.57
2022-09-21T06:26:19.429Z,49.22
2022-09-21T06:28:47.767Z,48.82
2022-09-21T06:31:16.123Z,49.11
2022-09-21T06:33:48.019Z,49.30
2022-09-21T06:36:17.471Z,49.28
2022-09-21T06:38:45.894Z,49.72
2022-09-21T06:41:20.136Z,49.16
2022-09-21T06:43:53.174Z,49.22
2022-09-21T06:46:21.574Z,49.29
2022-09-21T06:48:50.535Z,49.11
2022-09-21T06:51:20.856Z,48.88
2022-09-21T06:53:49.421Z,49.24
2022-09-21T06:56:17.880Z,49.05
2022-09-21T06:58:47.500Z,49.68
2022-09-21T07:01:16.245Z,49.77
2022-09-21T07:03:44.717Z,49.80
2022-09-21T07:06:15.612Z,50.11
2022-09-21T07:11:32.936Z,50.38
2022-09-21T07:14:01.310Z,50.12
2022-09-21T07:16:29.680Z,49.84
2022-09-21T07:19:10.053Z,49.86
2022-09-21T07:21:40.266Z,49.29
2022-09-21T07:24:12.238Z,48.89
2022-09-21T07:26:42.336Z,48.78
2022-09-21T07:29:10.717Z,48.76
2022-09-21T07:31:39.112Z,48.83
2022-09-21T07:34:07.621Z,48.83
2022-09-21T07:36:37.193Z,48.86
2022-09-21T07:39:05.645Z,49.00
2022-09-21T07:41:34.015Z,49.14
2022-09-21T07:44:03.040Z,49.11
2022-09-21T07:46:32.371Z,49.07
2022-09-21T07:49:00.753Z,49.04
2022-09-21T07:51:29.505Z,49.05
2022-09-21T07:53:57.981Z,48.93
2022-09-21T07:56:26.457Z,48.52
2022-09-21T07:59:07.202Z,48.16
2022-09-21T08:01:37.055Z,47.91
2022-09-21T08:04:07.254Z,47.95
2022-09-21T08:06:38.029Z,48.33
2022-09-21T08:09:06.822Z,47.99
2022-09-21T08:11:37.519Z,47.67
2022-09-21T08:14:22.447Z,47.69
2022-09-21T08:16:54.472Z,47.76
2022-09-21T08:19:25.636Z,47.86
2022-09-21T08:21:57.466Z,47.12
2022-09-21T08:24:27.071Z,47.07
2022-09-21T08:26:56.027Z,47.12
2022-09-21T08:29:25.768Z,46.87
2022-09-21T08:31:54.168Z,46.02
2022-09-21T08:34:25.050Z,45.82
2022-09-21T08:36:55.780Z,45.97
2022-09-21T08:39:24.483Z,44.32
2022-09-21T08:41:55.742Z,45.05
2022-09-21T08:44:31.883Z,45.57
2022-09-21T08:47:11.624Z,45.53
2022-09-21T08:49:41.830Z,44.94
2022-09-21T08:52:16.893Z,44.29
2022-09-21T08:54:55.289Z,44.36
2022-09-21T08:57:28.309Z,44.54
2022-09-21T08:59:57.202Z,42.81
2022-09-21T09:02:37.763Z,43.49
2022-09-21T09:05:28.361Z,43.43
2022-09-21T09:08:16.155Z,43.37
2022-09-21T09:10:44.512Z,43.00
2022-09-21T09:13:15.982Z,42.85
2022-09-21T09:15:44.402Z,43.50
2022-09-21T09:18:19.150Z,43.43
2022-09-21T09:20:49.501Z,42.52
2022-09-21T09:23:22.808Z,42.59
2022-09-21T09:25:53.092Z,41.57
2022-09-21T09:28:27.528Z,42.37
2022-09-21T09:31:10.958Z,42.14
2022-09-21T09:33:46.277Z,42.05
2022-09-21T09:36:14.685Z,41.38
2022-09-21T09:38:50.902Z,41.38
2022-09-21T09:41:22.473Z,42.12
2022-09-21T09:44:12.252Z,41.32
2022-09-21T09:46:58.481Z,41.94
2022-09-21T09:49:41.763Z,39.91
2022-09-21T09:52:12.267Z,41.45
2022-09-21T09:54:40.709Z,41.48
2022-09-21T09:57:09.576Z,41.39
2022-09-21T09:59:40.953Z,41.10
2022-09-21T10:02:22.952Z,40.77
2022-09-21T10:04:55.952Z,39.24
2022-09-21T10:07:34.024Z,38.80
2022-09-21T10:10:02.548Z,39.01
2022-09-21T10:12:31.138Z,36.90
2022-09-21T10:15:01.337Z,37.89
2022-09-21T10:17:29.677Z,36.91
2022-09-21T10:20:02.022Z,37.46
2022-09-21T10:22:31.449Z,37.61
2022-09-21T10:25:01.679Z,38.21
2022-09-21T10:27:34.442Z,37.79
2022-09-21T10:30:02.788Z,37.11
2022-09-21T10:32:32.163Z,37.83
2022-09-21T10:35:10.579Z,38.43
2022-09-21T10:37:41.338Z,37.80
2022-09-21T10:40:19.073Z,35.32
2022-09-21T10:42:48.975Z,35.08
2022-09-21T10:45:21.624Z,36.21
2022-09-21T10:47:51.923Z,35.41
2022-09-21T10:50:25.440Z,34.78
2022-09-21T10:52:59.691Z,37.11
2022-09-21T10:55:29.474Z,37.46
2022-09-21T10:57:58.020Z,37.49
2022-09-21T11:00:29.355Z,37.13
2022-09-21T11:03:00.928Z,37.06
2022-09-21T11:05:33.360Z,38.05
2022-09-21T11:08:15.312Z,37.75
2022-09-21T11:10:52.743Z,37.19
2022-09-21T11:13:33.609Z,35.73
2022-09-21T11:16:02.041Z,34.42
2022-09-21T11:18:33.463Z,35.08
2022-09-21T11:21:05.759Z,35.15
2022-09-21T11:23:33.989Z,36.32
2022-09-21T11:26:02.285Z,36.08
2022-09-21T11:28:40.937Z,34.15
2022-09-21T11:31:32.062Z,35.34
2022-09-21T11:34:06.533Z,36.02
2022-09-21T11:36:53.766Z,34.92
2022-09-21T11:39:29.196Z,35.72
2022-09-21T11:42:17.442Z,33.48
2022-09-21T11:44:48.674Z,33.88
2022-09-21T11:47:29.476Z,35.48
2022-09-21T11:50:29.713Z,35.38
2022-09-21T11:53:05.357Z,34.87
2022-09-21T11:55:53.074Z,31.81
2022-09-21T11:58:32.282Z,32.49
2022-09-21T12:01:03.429Z,34.20
2022-09-21T12:03:38.449Z,34.87
2022-09-21T12:06:24.031Z,34.93
2022-09-21T12:08:55.408Z,33.94
2022-09-21T12:11:43.864Z,31.75
2022-09-21T12:14:22.449Z,34.65
2022-09-21T12:17:03.320Z,34.98
2022-09-21T12:19:51.774Z,34.92
2022-09-21T12:22:24.627Z,34.36
2022-09-21T12:24:59.664Z,33.76
2022-09-21T12:27:30.878Z,35.18
2022-09-21T12:30:03.294Z,34.96
2022-09-21T12:32:53.871Z,34.77
2022-09-21T12:35:28.885Z,34.69
2022-09-21T12:38:18.519Z,35.41
2022-09-21T12:40:56.736Z,34.97
2022-09-21T12:43:36.599Z,34.80
2022-09-21T12:46:13.313Z,33.79
2022-09-21T12:48:45.048Z,34.80
2022-09-21T12:51:16.505Z,35.14
2022-09-21T12:53:51.074Z,35.20
2022-09-21T12:56:20.217Z,35.31
2022-09-21T12:58:50.691Z,33.68
2022-09-21T13:01:26.505Z,33.37
2022-09-21T13:04:03.851Z,34.26
2022-09-21T13:06:35.478Z,34.82
2022-09-21T13:09:07.312Z,34.36
2022-09-21T13:11:49.913Z,31.49
2022-09-21T13:14:18.447Z,31.65
2022-09-21T13:16:53.689Z,31.77
2022-09-21T13:19:23.134Z,31.74
2022-09-21T13:22:14.907Z,31.83
2022-09-21T13:24:45.390Z,32.70
2022-09-21T13:27:13.849Z,33.69
2022-09-21T13:29:43.051Z,34.21
2022-09-21T13:32:11.412Z,34.66
2022-09-21T13:34:43.514Z,33.02
2022-09-21T13:37:11.791Z,34.31
2022-09-21T13:39:45.258Z,34.77
2022-09-21T13:42:32.255Z,33.18
2022-09-21T13:45:17.907Z,33.51
2022-09-21T13:47:47.578Z,33.40
2022-09-21T13:50:31.313Z,33.97
2022-09-21T13:53:04.587Z,34.90
2022-09-21T13:55:38.998Z,34.53
2022-09-21T13:58:18.545Z,34.11
2022-09-21T14:00:49.702Z,33.73
2022-09-21T14:03:21.452Z,34.26
2022-09-21T14:06:00.961Z,34.55
2022-09-21T14:08:31.609Z,34.25
2022-09-21T14:11:02.550Z,33.78
2022-09-21T14:13:38.331Z,33.71
2022-09-21T14:16:45.804Z,34.08
2022-09-21T14:19:17.264Z,33.59
2022-09-21T14:22:03.837Z,34.18
2022-09-21T14:24:38.152Z,33.87
2022-09-21T14:27:18.809Z,34.51
2022-09-21T14:29:53.197Z,34.42
2022-09-21T14:32:23.554Z,33.62
2022-09-21T14:34:55.697Z,33.98
2022-09-21T14:37:35.787Z,33.75
2022-09-21T14:40:14.117Z,34.15
2022-09-21T14:42:42.680Z,34.20
2022-09-21T14:45:15.298Z,34.17
2022-09-21T14:47:52.187Z,34.15
2022-09-21T14:50:21.538Z,34.26
2022-09-21T14:52:57.784Z,34.46
2022-09-21T14:55:46.955Z,31.92
2022-09-21T14:58:19.015Z,32.45
2022-09-21T15:00:49.889Z,33.28
2022-09-21T15:03:38.974Z,33.47
2022-09-21T15:06:27.373Z,34.27
2022-09-21T15:09:29.409Z,32.80
2022-09-21T15:12:01.826Z,33.33
2022-09-21T15:14:34.960Z,33.81
2022-09-21T15:17:22.285Z,33.94
2022-09-21T15:19:52.432Z,33.43
2022-09-21T15:22:22.288Z,33.54
2022-09-21T15:24:51.849Z,33.99
2022-09-21T15:27:23.011Z,33.47
2022-09-21T15:29:55.733Z,33.05
2022-09-21T15:32:36.445Z,33.74
2022-09-21T15:35:07.086Z,33.92
2022-09-21T15:37:36.719Z,33.40
2022-09-21T15:40:07.569Z,33.06
2022-09-21T15:42:42.446Z,33.62
2022-09-21T15:45:14.525Z,33.84
2022-09-21T15:47:44.362Z,33.11
2022-09-21T15:50:16.367Z,33.35
2022-09-21T15:53:04.991Z,33.43
2022-09-21T15:55:33.657Z,33.01
2022-09-21T15:58:04.291Z,32.71
2022-09-21T16:00:35.462Z,33.44
2022-09-21T16:03:06.910Z,33.68
2022-09-21T16:06:02.409Z,33.98
2022-09-21T16:08:35.529Z,33.52
2022-09-21T16:11:15.969Z,34.00
2022-09-21T16:14:04.202Z,33.04
2022-09-21T16:16:32.629Z,33.41
2022-09-21T16:19:01.156Z,33.91
2022-09-21T16:21:34.166Z,34.10
2022-09-21T16:24:10.963Z,33.83
2022-09-21T16:26:41.527Z,33.64
2022-09-21T16:29:18.183Z,34.10
2022-09-21T16:31:50.093Z,33.50
2022-09-21T16:34:48.162Z,33.68
2022-09-21T16:37:24.252Z,33.77
2022-09-21T16:39:53.967Z,33.78
2022-09-21T16:42:23.052Z,34.27
2022-09-21T16:44:51.425Z,34.07
2022-09-21T16:47:25.154Z,34.61
2022-09-21T16:50:01.433Z,34.00
2022-09-21T16:52:30.486Z,34.66
2022-09-21T16:55:00.098Z,34.30
2022-09-21T16:57:28.645Z,34.61
2022-09-21T16:59:58.013Z,34.67
2022-09-21T17:02:26.359Z,34.41
2022-09-21T17:04:54.734Z,34.71
2022-09-21T17:07:23.087Z,35.01
2022-09-21T17:09:52.440Z,35.21
2022-09-21T17:12:22.120Z,35.36
2022-09-21T17:14:52.239Z,35.32
2022-09-21T17:17:20.565Z,34.92
2022-09-21T17:19:50.743Z,35.28
2022-09-21T17:22:19.421Z,35.52
2022-09-21T17:24:52.008Z,35.33
2022-09-21T17:27:22.572Z,35.63
2022-09-21T17:29:54.172Z,35.83
2022-09-21T17:32:23.534Z,35.65
2022-09-21T17:34:55.599Z,35.79
2022-09-21T17:37:24.163Z,35.54
2022-09-21T17:39:53.667Z,35.42
2022-09-21T17:42:25.662Z,35.54
2022-09-21T17:44:59.616Z,35.43
2022-09-21T17:47:29.322Z,35.38
2022-09-21T17:50:02.554Z,35.48
2022-09-21T17:52:50.100Z,35.71
2022-09-21T17:55:18.630Z,36.11
2022-09-21T17:57:50.584Z,35.88
2022-09-21T18:00:20.383Z,36.04
2022-09-21T18:02:49.614Z,36.44
2022-09-21T18:05:23.902Z,36.28
2022-09-21T18:07:52.938Z,36.00
2022-09-21T18:10:22.276Z,36.01
2022-09-21T18:13:14.155Z,36.35
2022-09-21T18:15:45.542Z,36.58
2022-09-21T18:18:19.058Z,36.42
2022-09-21T18:20:54.023Z,36.64
2022-09-21T18:23:29.640Z,36.89
2022-09-21T18:25:58.427Z,36.97
2022-09-21T18:28:46.644Z,36.95
2022-09-21T18:31:15.132Z,37.35
2022-09-21T18:33:52.059Z,37.68
2022-09-21T18:36:31.681Z,37.73
2022-09-21T18:39:22.888Z,37.67
2022-09-21T18:42:11.454Z,37.75
2022-09-21T18:44:46.551Z,37.85
2022-09-21T18:47:24.973Z,37.81
2022-09-21T18:49:56.299Z,37.61
2022-09-21T18:52:43.632Z,37.64
2022-09-21T18:55:33.376Z,38.19
2022-09-21T18:58:01.958Z,38.59
2022-09-21T19:00:35.427Z,38.73
2022-09-21T19:03:17.642Z,38.66
2022-09-21T19:06:05.813Z,38.86
2022-09-21T19:08:37.609Z,39.16
2022-09-21T19:11:32.188Z,39.39
2022-09-21T19:14:19.538Z,39.35
2022-09-21T19:17:02.457Z,39.41
2022-09-21T19:19:33.588Z,39.31
2022-09-21T19:22:08.415Z,40.36
2022-09-21T19:24:43.037Z,40.09
2022-09-21T19:27:24.773Z,39.75
2022-09-21T19:30:22.624Z,39.57
2022-09-21T19:33:03.150Z,39.50
2022-09-21T19:35:32.750Z,39.34
2022-09-21T19:38:01.993Z,39.60
2022-09-21T19:40:32.536Z,39.83
2022-09-21T19:43:06.993Z,39.93
2022-09-21T19:45:54.579Z,39.93
2022-09-21T19:48:26.949Z,39.55
2022-09-21T19:50:58.669Z,39.77
2022-09-21T19:53:45.746Z,40.15
2022-09-21T19:56:34.101Z,40.21
2022-09-21T19:59:21.471Z,40.50
2022-09-21T20:01:58.155Z,40.47
2022-09-21T20:04:56.199Z,40.48
2022-09-21T20:07:25.031Z,41.11
2022-09-21T20:10:14.587Z,41.09
2022-09-21T20:12:52.068Z,41.18
2022-09-21T20:15:29.347Z,41.00
2022-09-21T20:18:24.172Z,41.03
2022-09-21T20:20:52.765Z,41.25
2022-09-21T20:23:21.190Z,41.25
2022-09-21T20:25:52.511Z,41.20
2022-09-21T20:28:21.925Z,40.88
2022-09-21T20:30:50.605Z,41.43
2022-09-21T20:33:22.672Z,41.51
2022-09-21T20:35:55.859Z,41.39
2022-09-21T20:38:25.695Z,41.29
2022-09-21T20:40:54.521Z,41.75
2022-09-21T20:43:29.017Z,42.20
2022-09-21T20:46:06.355Z,41.68
2022-09-21T20:48:36.353Z,41.96
2022-09-21T20:51:06.268Z,42.32
2022-09-21T20:53:36.989Z,42.89
2022-09-21T20:56:06.294Z,42.67
2022-09-21T20:58:35.712Z,42.29
2022-09-21T21:01:08.284Z,41.98
2022-09-21T21:03:38.126Z,41.99
2022-09-21T21:06:24.734Z,41.67
2022-09-21T21:08:53.222Z,42.00
2022-09-21T21:11:21.991Z,42.45
2022-09-21T21:13:50.637Z,42.85
2022-09-21T21:16:19.085Z,42.48
2022-09-21T21:18:47.460Z,42.35
2022-09-21T21:21:15.892Z,42.25
2022-09-21T21:24:20.362Z,42.27
2022-09-21T21:27:01.850Z,42.17
2022-09-21T21:29:32.026Z,42.62
2022-09-21T21:32:00.677Z,42.29
2022-09-21T21:34:29.538Z,42.78
2022-09-21T21:36:57.879Z,43.28
2022-09-21T21:39:26.187Z,42.91
2022-09-21T21:41:54.824Z,42.72
2022-09-21T21:44:23.330Z,43.02
2022-09-21T21:46:53.212Z,42.84
2022-09-21T21:49:21.576Z,42.92
2022-09-21T21:51:50.708Z,42.84
2022-09-21T21:54:22.984Z,43.32
2022-09-21T21:56:52.110Z,42.86
2022-09-21T21:59:20.982Z,42.29
2022-09-21T22:01:49.898Z,42.23
2022-09-21T22:04:18.485Z,43.12
2022-09-21T22:06:48.169Z,42.86
2022-09-21T22:09:18.355Z,42.43
2022-09-21T22:11:47.648Z,42.40
2022-09-21T22:14:16.053Z,43.17
2022-09-21T22:16:44.566Z,43.40
2022-09-21T22:19:12.945Z,43.15
2022-09-21T22:21:42.338Z,43.70
2022-09-21T22:24:11.290Z,43.50
2022-09-21T22:26:40.989Z,44.19
2022-09-21T22:29:10.423Z,43.64
2022-09-21T22:31:46.471Z,43.63
2022-09-21T22:34:15.211Z,44.28
2022-09-21T22:36:43.916Z,44.31
2022-09-21T22:39:12.847Z,44.36
2022-09-21T22:41:42.095Z,44.56
2022-09-21T22:44:10.751Z,44.08
2022-09-21T22:46:39.453Z,43.89
2022-09-21T22:49:08.145Z,44.02
2022-09-21T22:51:37.850Z,43.92
2022-09-21T22:54:08.276Z,43.61
2022-09-21T22:56:36.785Z,43.72
2022-09-21T22:59:05.537Z,43.62
2022-09-21T23:01:36.216Z,43.83
2022-09-21T23:04:06.561Z,43.37
2022-09-21T23:06:37.225Z,43.59
2022-09-21T23:09:07.470Z,43.44
2022-09-21T23:11:38.895Z,43.73
2022-09-21T23:14:07.380Z,44.27
2022-09-21T23:16:35.851Z,44.02
2022-09-21T23:19:04.606Z,44.18
2022-09-21T23:21:32.955Z,44.30
2022-09-21T23:24:02.461Z,44.35
2022-09-21T23:26:31.945Z,44.36
2022-09-21T23:29:05.138Z,44.48
2022-09-21T23:31:33.553Z,44.66
2022-09-21T23:34:07.633Z,44.63
2022-09-21T23:36:37.093Z,44.85
2022-09-21T23:39:06.992Z,44.86
2022-09-21T23:41:36.244Z,45.00
2022-09-21T23:44:04.886Z,44.51
2022-09-21T23:46:35.699Z,44.39
2022-09-21T23:49:04.516Z,44.68
2022-09-21T23:51:33.258Z,44.53
2022-09-21T23:54:03.081Z,44.33
2022-09-21T23:56:31.946Z,44.19
2022-09-21T23:59:01.367Z,43.67
